Check out our new PWSWeather beta!
PWSweather.com
Personal Weather Stations
Station Observations
METEOC500
Santo Antonio, FunchalPT 2020

Santo AntonioFunchalPT 2020

Lat: 32.678227, Lon: -16.945054

Elevation: 1669.94751

Station Type: WH Series

High Low Average
Temperature 69.3°F20.7°C 57.9°F14.4°C 62.5°F16.9°C
Dew Point 59.5°F15.3°C 48.2°F9.0°C 52.7°F11.5°C
Winds 11.6 mph 18.7 kmh Calm Calm 4.0 mph W6.4 kmh W
Wind Gusts 22.6 mph36.4 kmh 4.9 mph7.9 kmh 10.0 mph16.1 kmh
Humidity 84% 52% 71%
Pressure 30.32 in1026.8 mb 30.24 in1024.0 mb -
Precipitation 0.00 in0.0 mm - -
Hour Temp Dew Point Humidity Winds Wind Gusts Pressure Precip Precip Rate Daily Precip Total
12:11 AM 61.0°F16.1°C 55.4°F13.0°C 82% 4.9 mph NNW7.9 kmh NNW 10.1 mph16.3 kmh 30.27 in1025.1 mb 0.00 in0.0 mm 0.00 in0.0 mm 0.00 in0.0 mm
12:26 AM 61.0°F16.1°C 55.0°F12.8°C 81% 4.7 mph N7.6 kmh N 7.6 mph12.2 kmh 30.27 in1025.1 mb 0.00 in0.0 mm 0.00 in0.0 mm 0.00 in0.0 mm
12:41 AM 61.2°F16.2°C 55.6°F13.1°C 82% 4.0 mph NNW6.4 kmh NNW 10.1 mph16.3 kmh 30.27 in1025.1 mb 0.00 in0.0 mm 0.00 in0.0 mm 0.00 in0.0 mm
12:56 AM 61.2°F16.2°C 55.9°F13.3°C 83% 6.3 mph NW10.1 kmh NW 10.1 mph16.3 kmh 30.27 in1025.1 mb 0.00 in0.0 mm 0.00 in0.0 mm 0.00 in0.0 mm
01:11 AM 61.3°F16.3°C 55.8°F13.2°C 82% 4.9 mph N7.9 kmh N 10.1 mph16.3 kmh 30.26 in1024.7 mb 0.00 in0.0 mm 0.00 in0.0 mm 0.00 in0.0 mm
01:26 AM 61.3°F16.3°C 55.4°F13.0°C 81% 1.3 mph NNW2.1 kmh NNW 10.1 mph16.3 kmh 30.26 in1024.7 mb 0.00 in0.0 mm 0.00 in0.0 mm 0.00 in0.0 mm
01:41 AM 61.3°F16.3°C 54.9°F12.7°C 79% 2.2 mph NNW3.5 kmh NNW 7.6 mph12.2 kmh 30.26 in1024.7 mb 0.00 in0.0 mm 0.00 in0.0 mm 0.00 in0.0 mm
01:56 AM 60.8°F16.0°C 54.3°F12.4°C 79% 5.6 mph NW9.0 kmh NW 7.6 mph12.2 kmh 30.26 in1024.7 mb 0.00 in0.0 mm 0.00 in0.0 mm 0.00 in0.0 mm
02:11 AM 60.4°F15.8°C 54.0°F12.2°C 79% 4.0 mph N6.4 kmh N 10.1 mph16.3 kmh 30.25 in1024.4 mb 0.00 in0.0 mm 0.00 in0.0 mm 0.00 in0.0 mm
02:26 AM 60.4°F15.8°C 54.5°F12.5°C 81% 4.9 mph NW7.9 kmh NW 7.6 mph12.2 kmh 30.25 in1024.4 mb 0.00 in0.0 mm 0.00 in0.0 mm 0.00 in0.0 mm
02:41 AM 60.8°F16.0°C 54.9°F12.7°C 81% 5.6 mph NNW9.0 kmh NNW 10.1 mph16.3 kmh 30.25 in1024.4 mb 0.00 in0.0 mm 0.00 in0.0 mm 0.00 in0.0 mm
02:56 AM 61.0°F16.1°C 55.8°F13.2°C 83% 4.5 mph NNW7.2 kmh NNW 7.6 mph12.2 kmh 30.25 in1024.4 mb 0.00 in0.0 mm 0.00 in0.0 mm 0.00 in0.0 mm
03:11 AM 61.0°F16.1°C 55.8°F13.2°C 83% 2.5 mph NNW4.0 kmh NNW 7.6 mph12.2 kmh 30.25 in1024.4 mb 0.00 in0.0 mm 0.00 in0.0 mm 0.00 in0.0 mm
03:26 AM 60.8°F16.0°C 54.9°F12.7°C 81% 2.9 mph N4.7 kmh N 7.6 mph12.2 kmh 30.25 in1024.4 mb 0.00 in0.0 mm 0.00 in0.0 mm 0.00 in0.0 mm
03:41 AM 61.0°F16.1°C 55.0°F12.8°C 81% 6.0 mph NNW9.7 kmh NNW 7.6 mph12.2 kmh 30.26 in1024.7 mb 0.00 in0.0 mm 0.00 in0.0 mm 0.00 in0.0 mm
03:56 AM 61.0°F16.1°C 55.0°F12.8°C 81% 2.9 mph NNW4.7 kmh NNW 7.6 mph12.2 kmh 30.25 in1024.4 mb 0.00 in0.0 mm 0.00 in0.0 mm 0.00 in0.0 mm
04:11 AM 60.8°F16.0°C 54.9°F12.7°C 81% 2.9 mph NNW4.7 kmh NNW 7.6 mph12.2 kmh 30.24 in1024.0 mb 0.00 in0.0 mm 0.00 in0.0 mm 0.00 in0.0 mm
04:26 AM 60.6°F15.9°C 54.5°F12.5°C 80% 4.0 mph N6.4 kmh N 7.6 mph12.2 kmh 30.24 in1024.0 mb 0.00 in0.0 mm 0.00 in0.0 mm 0.00 in0.0 mm
04:41 AM 60.8°F16.0°C 54.3°F12.4°C 79% 3.8 mph NW6.1 kmh NW 7.6 mph12.2 kmh 30.24 in1024.0 mb 0.00 in0.0 mm 0.00 in0.0 mm 0.00 in0.0 mm
04:56 AM 61.0°F16.1°C 54.7°F12.6°C 80% 3.8 mph NNW6.1 kmh NNW 7.6 mph12.2 kmh 30.25 in1024.4 mb 0.00 in0.0 mm 0.00 in0.0 mm 0.00 in0.0 mm
05:11 AM 60.8°F16.0°C 54.0°F12.2°C 78% 3.4 mph NNW5.5 kmh NNW 10.1 mph16.3 kmh 30.26 in1024.7 mb 0.00 in0.0 mm 0.00 in0.0 mm 0.00 in0.0 mm
05:26 AM 61.2°F16.2°C 54.3°F12.4°C 78% 4.7 mph NNW7.6 kmh NNW 7.6 mph12.2 kmh 30.26 in1024.7 mb 0.00 in0.0 mm 0.00 in0.0 mm 0.00 in0.0 mm
05:41 AM 61.7°F16.5°C 55.0°F12.8°C 79% 4.9 mph NW7.9 kmh NW 7.6 mph12.2 kmh 30.25 in1024.4 mb 0.00 in0.0 mm 0.00 in0.0 mm 0.00 in0.0 mm
05:56 AM 61.7°F16.5°C 55.4°F13.0°C 80% 6.9 mph NNW11.1 kmh NNW 10.1 mph16.3 kmh 30.26 in1024.7 mb 0.00 in0.0 mm 0.00 in0.0 mm 0.00 in0.0 mm
06:11 AM 61.9°F16.6°C 55.2°F12.9°C 79% 5.6 mph NNW9.0 kmh NNW 10.1 mph16.3 kmh 30.25 in1024.4 mb 0.00 in0.0 mm 0.00 in0.0 mm 0.00 in0.0 mm
06:26 AM 62.1°F16.7°C 55.4°F13.0°C 79% 6.3 mph N10.1 kmh N 10.1 mph16.3 kmh 30.25 in1024.4 mb 0.00 in0.0 mm 0.00 in0.0 mm 0.00 in0.0 mm
06:41 AM 62.1°F16.7°C 55.0°F12.8°C 78% 4.5 mph NNW7.2 kmh NNW 10.1 mph16.3 kmh 30.26 in1024.7 mb 0.00 in0.0 mm 0.00 in0.0 mm 0.00 in0.0 mm
06:56 AM 62.2°F16.8°C 54.9°F12.7°C 77% 2.5 mph NW4.0 kmh NW 10.1 mph16.3 kmh 30.26 in1024.7 mb 0.00 in0.0 mm 0.00 in0.0 mm 0.00 in0.0 mm
07:11 AM 62.4°F16.9°C 55.4°F13.0°C 78% 1.6 mph NNW2.6 kmh NNW 4.9 mph7.9 kmh 30.26 in1024.7 mb 0.00 in0.0 mm 0.00 in0.0 mm 0.00 in0.0 mm
07:26 AM 62.4°F16.9°C 56.1°F13.4°C 80% 3.4 mph NNW5.5 kmh NNW 4.9 mph7.9 kmh 30.27 in1025.1 mb 0.00 in0.0 mm 0.00 in0.0 mm 0.00 in0.0 mm
07:41 AM 61.9°F16.6°C 55.6°F13.1°C 80% 2.5 mph NNW4.0 kmh NNW 7.6 mph12.2 kmh 30.27 in1025.1 mb 0.00 in0.0 mm 0.00 in0.0 mm 0.00 in0.0 mm
07:56 AM 61.7°F16.5°C 55.0°F12.8°C 79% 4.5 mph NNW7.2 kmh NNW 7.6 mph12.2 kmh 30.28 in1025.4 mb 0.00 in0.0 mm 0.00 in0.0 mm 0.00 in0.0 mm
08:11 AM 62.1°F16.7°C 55.8°F13.2°C 80% 4.7 mph N7.6 kmh N 7.6 mph12.2 kmh 30.28 in1025.4 mb 0.00 in0.0 mm 0.00 in0.0 mm 0.00 in0.0 mm
08:26 AM 62.4°F16.9°C 55.8°F13.2°C 79% 2.5 mph N4.0 kmh N 7.6 mph12.2 kmh 30.29 in1025.7 mb 0.00 in0.0 mm 0.00 in0.0 mm 0.00 in0.0 mm
08:41 AM 63.0°F17.2°C 55.6°F13.1°C 77% Calm Calm 7.6 mph12.2 kmh 30.30 in1026.1 mb 0.00 in0.0 mm 0.00 in0.0 mm 0.00 in0.0 mm
08:56 AM 63.7°F17.6°C 56.3°F13.5°C 77% Calm Calm 7.6 mph12.2 kmh 30.30 in1026.1 mb 0.00 in0.0 mm 0.00 in0.0 mm 0.00 in0.0 mm
09:11 AM 64.0°F17.8°C 57.7°F14.3°C 80% Calm Calm 7.6 mph12.2 kmh 30.31 in1026.4 mb 0.00 in0.0 mm 0.00 in0.0 mm 0.00 in0.0 mm
09:26 AM 64.2°F17.9°C 58.3°F14.6°C 81% Calm Calm 4.9 mph7.9 kmh 30.31 in1026.4 mb 0.00 in0.0 mm 0.00 in0.0 mm 0.00 in0.0 mm
09:41 AM 64.2°F17.9°C 59.0°F15.0°C 83% 3.1 mph S5.0 kmh S 4.9 mph7.9 kmh 30.32 in1026.8 mb 0.00 in0.0 mm 0.00 in0.0 mm 0.00 in0.0 mm
09:56 AM 64.4°F18.0°C 58.5°F14.7°C 81% 0.7 mph SSW1.1 kmh SSW 7.6 mph12.2 kmh 30.31 in1026.4 mb 0.00 in0.0 mm 0.00 in0.0 mm 0.00 in0.0 mm
10:11 AM 64.4°F18.0°C 59.5°F15.3°C 84% 0.2 mph SSW0.3 kmh SSW 7.6 mph12.2 kmh 30.31 in1026.4 mb 0.00 in0.0 mm 0.00 in0.0 mm 0.00 in0.0 mm
10:26 AM 63.9°F17.7°C 59.0°F15.0°C 84% 2.9 mph S4.7 kmh S 4.9 mph7.9 kmh 30.32 in1026.8 mb 0.00 in0.0 mm 0.00 in0.0 mm 0.00 in0.0 mm
10:41 AM 63.7°F17.6°C 55.6°F13.1°C 75% 4.7 mph NW7.6 kmh NW 10.1 mph16.3 kmh 30.31 in1026.4 mb 0.00 in0.0 mm 0.00 in0.0 mm 0.00 in0.0 mm
10:56 AM 65.3°F18.5°C 50.2°F10.1°C 58% 2.2 mph NE3.5 kmh NE 20.1 mph32.3 kmh 30.31 in1026.4 mb 0.00 in0.0 mm 0.00 in0.0 mm 0.00 in0.0 mm
11:11 AM 68.0°F20.0°C 53.1°F11.7°C 59% 3.8 mph SSW6.1 kmh SSW 7.6 mph12.2 kmh 30.31 in1026.4 mb 0.00 in0.0 mm 0.00 in0.0 mm 0.00 in0.0 mm
11:26 AM 69.3°F20.7°C 54.3°F12.4°C 59% 3.1 mph NW5.0 kmh NW 7.6 mph12.2 kmh 30.31 in1026.4 mb 0.00 in0.0 mm 0.00 in0.0 mm 0.00 in0.0 mm
11:41 AM 68.0°F20.0°C 55.4°F13.0°C 64% 8.7 mph NNW14.0 kmh NNW 12.5 mph20.1 kmh 30.31 in1026.4 mb 0.00 in0.0 mm 0.00 in0.0 mm 0.00 in0.0 mm
11:56 AM 66.6°F19.2°C 54.9°F12.7°C 66% 4.5 mph S7.2 kmh S 12.5 mph20.1 kmh 30.30 in1026.1 mb 0.00 in0.0 mm 0.00 in0.0 mm 0.00 in0.0 mm
12:11 PM 66.2°F19.0°C 53.6°F12.0°C 64% 4.9 mph S7.9 kmh S 12.5 mph20.1 kmh 30.31 in1026.4 mb 0.00 in0.0 mm 0.00 in0.0 mm 0.00 in0.0 mm
12:26 PM 66.2°F19.0°C 52.9°F11.6°C 62% 1.6 mph S2.6 kmh S 10.1 mph16.3 kmh 30.29 in1025.7 mb 0.00 in0.0 mm 0.00 in0.0 mm 0.00 in0.0 mm
12:41 PM 67.1°F19.5°C 52.3°F11.3°C 59% 5.6 mph 9.0 kmh 17.4 mph28.0 kmh 30.29 in1025.7 mb 0.00 in0.0 mm 0.00 in0.0 mm 0.00 in0.0 mm
12:56 PM 67.1°F19.5°C 51.8°F11.0°C 58% 7.6 mph NE12.2 kmh NE 17.4 mph28.0 kmh 30.28 in1025.4 mb 0.00 in0.0 mm 0.00 in0.0 mm 0.00 in0.0 mm
01:11 PM 66.2°F19.0°C 50.9°F10.5°C 58% 4.9 mph NE7.9 kmh NE 22.6 mph36.4 kmh 30.28 in1025.4 mb 0.00 in0.0 mm 0.00 in0.0 mm 0.00 in0.0 mm
01:26 PM 66.2°F19.0°C 50.0°F10.0°C 56% 8.7 mph N14.0 kmh N 15.0 mph24.1 kmh 30.27 in1025.1 mb 0.00 in0.0 mm 0.00 in0.0 mm 0.00 in0.0 mm
01:41 PM 66.6°F19.2°C 49.5°F9.7°C 54% 11.6 mph NNE18.7 kmh NNE 15.0 mph24.1 kmh 30.27 in1025.1 mb 0.00 in0.0 mm 0.00 in0.0 mm 0.00 in0.0 mm
01:56 PM 66.7°F19.3°C 50.0°F10.0°C 55% 4.0 mph NE6.4 kmh NE 22.6 mph36.4 kmh 30.27 in1025.1 mb 0.00 in0.0 mm 0.00 in0.0 mm 0.00 in0.0 mm
02:11 PM 67.5°F19.7°C 49.3°F9.6°C 52% 7.6 mph NNE12.2 kmh NNE 12.5 mph20.1 kmh 30.26 in1024.7 mb 0.00 in0.0 mm 0.00 in0.0 mm 0.00 in0.0 mm
02:26 PM 68.0°F20.0°C 49.6°F9.8°C 52% 4.5 mph NW7.2 kmh NW 12.5 mph20.1 kmh 30.26 in1024.7 mb 0.00 in0.0 mm 0.00 in0.0 mm 0.00 in0.0 mm
02:41 PM 67.8°F19.9°C 50.0°F10.0°C 53% 2.9 mph N4.7 kmh N 15.0 mph24.1 kmh 30.26 in1024.7 mb 0.00 in0.0 mm 0.00 in0.0 mm 0.00 in0.0 mm
02:56 PM 68.0°F20.0°C 50.2°F10.1°C 53% 4.0 mph NNW6.4 kmh NNW 10.1 mph16.3 kmh 30.26 in1024.7 mb 0.00 in0.0 mm 0.00 in0.0 mm 0.00 in0.0 mm
03:11 PM 68.4°F20.2°C 51.6°F10.9°C 55% 4.0 mph NE6.4 kmh NE 10.1 mph16.3 kmh 30.26 in1024.7 mb 0.00 in0.0 mm 0.00 in0.0 mm 0.00 in0.0 mm
03:26 PM 69.1°F20.6°C 50.7°F10.4°C 52% 9.6 mph NW15.4 kmh NW 15.0 mph24.1 kmh 30.26 in1024.7 mb 0.00 in0.0 mm 0.00 in0.0 mm 0.00 in0.0 mm
03:41 PM 67.8°F19.9°C 52.5°F11.4°C 58% 4.0 mph NW6.4 kmh NW 15.0 mph24.1 kmh 30.26 in1024.7 mb 0.00 in0.0 mm 0.00 in0.0 mm 0.00 in0.0 mm
03:56 PM 66.0°F18.9°C 50.9°F10.5°C 58% 3.8 mph N6.1 kmh N 12.5 mph20.1 kmh 30.25 in1024.4 mb 0.00 in0.0 mm 0.00 in0.0 mm 0.00 in0.0 mm
04:11 PM 65.1°F18.4°C 51.3°F10.7°C 61% 5.6 mph NNW9.0 kmh NNW 10.1 mph16.3 kmh 30.25 in1024.4 mb 0.00 in0.0 mm 0.00 in0.0 mm 0.00 in0.0 mm
04:26 PM 64.4°F18.0°C 52.0°F11.1°C 64% 7.6 mph NNW12.2 kmh NNW 10.1 mph16.3 kmh 30.26 in1024.7 mb 0.00 in0.0 mm 0.00 in0.0 mm 0.00 in0.0 mm
04:41 PM 63.7°F17.6°C 51.6°F10.9°C 65% 6.9 mph NW11.1 kmh NW 15.0 mph24.1 kmh 30.26 in1024.7 mb 0.00 in0.0 mm 0.00 in0.0 mm 0.00 in0.0 mm
04:56 PM 63.1°F17.3°C 50.4°F10.2°C 63% 8.5 mph N13.7 kmh N 12.5 mph20.1 kmh 30.26 in1024.7 mb 0.00 in0.0 mm 0.00 in0.0 mm 0.00 in0.0 mm
05:11 PM 63.0°F17.2°C 50.2°F10.1°C 63% Calm Calm 15.0 mph24.1 kmh 30.27 in1025.1 mb 0.00 in0.0 mm 0.00 in0.0 mm 0.00 in0.0 mm
05:26 PM 62.8°F17.1°C 50.0°F10.0°C 63% 2.5 mph NW4.0 kmh NW 7.6 mph12.2 kmh 30.26 in1024.7 mb 0.00 in0.0 mm 0.00 in0.0 mm 0.00 in0.0 mm
05:41 PM 62.6°F17.0°C 50.2°F10.1°C 64% 1.6 mph NW2.6 kmh NW 12.5 mph20.1 kmh 30.25 in1024.4 mb 0.00 in0.0 mm 0.00 in0.0 mm 0.00 in0.0 mm
05:56 PM 62.1°F16.7°C 50.5°F10.3°C 66% 3.4 mph N5.5 kmh N 12.5 mph20.1 kmh 30.25 in1024.4 mb 0.00 in0.0 mm 0.00 in0.0 mm 0.00 in0.0 mm
06:11 PM 61.7°F16.5°C 49.8°F9.9°C 65% 0.7 mph N1.1 kmh N 10.1 mph16.3 kmh 30.27 in1025.1 mb 0.00 in0.0 mm 0.00 in0.0 mm 0.00 in0.0 mm
06:26 PM 61.2°F16.2°C 49.3°F9.6°C 65% 6.5 mph NNW10.5 kmh NNW 10.1 mph16.3 kmh 30.27 in1025.1 mb 0.00 in0.0 mm 0.00 in0.0 mm 0.00 in0.0 mm
06:41 PM 60.6°F15.9°C 49.3°F9.6°C 66% 3.4 mph NW5.5 kmh NW 12.5 mph20.1 kmh 30.27 in1025.1 mb 0.00 in0.0 mm 0.00 in0.0 mm 0.00 in0.0 mm
06:56 PM 60.3°F15.7°C 49.3°F9.6°C 67% 3.1 mph NW5.0 kmh NW 10.1 mph16.3 kmh 30.27 in1025.1 mb 0.00 in0.0 mm 0.00 in0.0 mm 0.00 in0.0 mm
07:11 PM 59.9°F15.5°C 48.6°F9.2°C 66% 8.1 mph NNW13.0 kmh NNW 10.1 mph16.3 kmh 30.28 in1025.4 mb 0.00 in0.0 mm 0.00 in0.0 mm 0.00 in0.0 mm
07:26 PM 59.7°F15.4°C 49.1°F9.5°C 68% 5.4 mph NW8.7 kmh NW 12.5 mph20.1 kmh 30.29 in1025.7 mb 0.00 in0.0 mm 0.00 in0.0 mm 0.00 in0.0 mm
07:41 PM 59.5°F15.3°C 48.9°F9.4°C 68% 1.3 mph WSW2.1 kmh WSW 7.6 mph12.2 kmh 30.28 in1025.4 mb 0.00 in0.0 mm 0.00 in0.0 mm 0.00 in0.0 mm
07:56 PM 59.7°F15.4°C 48.7°F9.3°C 67% 1.8 mph NNW2.9 kmh NNW 10.1 mph16.3 kmh 30.29 in1025.7 mb 0.00 in0.0 mm 0.00 in0.0 mm 0.00 in0.0 mm
08:11 PM 59.7°F15.4°C 49.1°F9.5°C 68% 5.4 mph NW8.7 kmh NW 10.1 mph16.3 kmh 30.29 in1025.7 mb 0.00 in0.0 mm 0.00 in0.0 mm 0.00 in0.0 mm
08:26 PM 59.4°F15.2°C 48.7°F9.3°C 68% 4.5 mph NNW7.2 kmh NNW 7.6 mph12.2 kmh 30.29 in1025.7 mb 0.00 in0.0 mm 0.00 in0.0 mm 0.00 in0.0 mm
08:41 PM 59.0°F15.0°C 49.3°F9.6°C 70% 4.9 mph NNW7.9 kmh NNW 7.6 mph12.2 kmh 30.29 in1025.7 mb 0.00 in0.0 mm 0.00 in0.0 mm 0.00 in0.0 mm
08:56 PM 58.6°F14.8°C 48.6°F9.2°C 69% 4.7 mph NW7.6 kmh NW 10.1 mph16.3 kmh 30.30 in1026.1 mb 0.00 in0.0 mm 0.00 in0.0 mm 0.00 in0.0 mm
09:11 PM 58.6°F14.8°C 48.9°F9.4°C 70% 4.5 mph NW7.2 kmh NW 7.6 mph12.2 kmh 30.30 in1026.1 mb 0.00 in0.0 mm 0.00 in0.0 mm 0.00 in0.0 mm
09:26 PM 58.5°F14.7°C 48.7°F9.3°C 70% 7.2 mph NW11.6 kmh NW 10.1 mph16.3 kmh 30.30 in1026.1 mb 0.00 in0.0 mm 0.00 in0.0 mm 0.00 in0.0 mm
09:41 PM 58.1°F14.5°C 48.7°F9.3°C 71% 6.0 mph NNW9.7 kmh NNW 12.5 mph20.1 kmh 30.31 in1026.4 mb 0.00 in0.0 mm 0.00 in0.0 mm 0.00 in0.0 mm
09:56 PM 58.1°F14.5°C 48.7°F9.3°C 71% 5.6 mph NNW9.0 kmh NNW 7.6 mph12.2 kmh 30.30 in1026.1 mb 0.00 in0.0 mm 0.00 in0.0 mm 0.00 in0.0 mm
10:11 PM 58.1°F14.5°C 48.4°F9.1°C 70% 5.6 mph NNW9.0 kmh NNW 10.1 mph16.3 kmh 30.30 in1026.1 mb 0.00 in0.0 mm 0.00 in0.0 mm 0.00 in0.0 mm
10:26 PM 58.3°F14.6°C 48.2°F9.0°C 69% 2.5 mph NNW4.0 kmh NNW 10.1 mph16.3 kmh 30.31 in1026.4 mb 0.00 in0.0 mm 0.00 in0.0 mm 0.00 in0.0 mm
10:41 PM 58.3°F14.6°C 49.3°F9.6°C 72% 3.8 mph NW6.1 kmh NW 10.1 mph16.3 kmh 30.31 in1026.4 mb 0.00 in0.0 mm 0.00 in0.0 mm 0.00 in0.0 mm
10:56 PM 58.1°F14.5°C 48.4°F9.1°C 70% 2.9 mph N4.7 kmh N 10.1 mph16.3 kmh 30.31 in1026.4 mb 0.00 in0.0 mm 0.00 in0.0 mm 0.00 in0.0 mm
11:11 PM 57.9°F14.4°C 48.6°F9.2°C 71% 3.4 mph NNW5.5 kmh NNW 7.6 mph12.2 kmh 30.32 in1026.8 mb 0.00 in0.0 mm 0.00 in0.0 mm 0.00 in0.0 mm
11:26 PM 58.1°F14.5°C 48.7°F9.3°C 71% 2.5 mph N4.0 kmh N 4.9 mph7.9 kmh 30.31 in1026.4 mb 0.00 in0.0 mm 0.00 in0.0 mm 0.00 in0.0 mm
11:41 PM 58.8°F14.9°C 49.1°F9.5°C 70% 0.9 mph NW1.4 kmh NW 10.1 mph16.3 kmh 30.31 in1026.4 mb 0.00 in0.0 mm 0.00 in0.0 mm 0.00 in0.0 mm
11:56 PM 59.4°F15.2°C 49.1°F9.5°C 69% 5.4 mph NNW8.7 kmh NNW 7.6 mph12.2 kmh 30.30 in1026.1 mb 0.00 in0.0 mm 0.00 in0.0 mm 0.00 in0.0 mm